Time;durP1;ratioP1;P1;durP2;ratioP2;P2;SDS_P1;SDS_P2;PMS_P1;PMS_P2;Temp;Humidity;BMP_temperature;BMP_pressure;BME280_temperature;BME280_humidity;BME280_pressure;Samples;Min_cycle;Max_cycle;Signal;HPM_P1;HPM_P2
2022/01/02 00:00:05;;;;;;;16.50;3.08;;;;;;;10.84;78.59;99669.22;4960026;28;20435;-54
2022/01/02 00:02:33;;;;;;;28.50;3.15;;;;;;;10.87;78.26;99674.38;4958966;28;20082;-54
2022/01/02 00:05:04;;;;;;;19.98;2.67;;;;;;;10.89;78.26;99670.03;4961681;28;20049;-60
2022/01/02 00:07:34;;;;;;;16.77;2.95;;;;;;;10.89;79.59;99677.81;4964343;28;20051;-51
2022/01/02 00:10:05;;;;;;;21.23;1.83;;;;;;;10.93;79.27;99674.31;4966441;28;20109;-54
2022/01/02 00:12:33;;;;;;;19.85;2.53;;;;;;;10.93;79.38;99674.31;4966125;28;20113;-55
2022/01/02 00:15:04;;;;;;;18.00;2.75;;;;;;;10.96;78.79;99669.09;4970295;28;20507;-57
2022/01/02 00:17:32;;;;;;;21.88;1.75;;;;;;;10.99;78.56;99663.91;4967449;28;20101;-56
2022/01/02 00:20:08;;;;;;;16.05;3.03;;;;;;;11.02;78.49;99657.81;4958332;28;20105;-53
2022/01/02 00:22:37;;;;;;;17.95;2.13;;;;;;;11.00;79.12;99669.91;4962705;28;20047;-55
2022/01/02 00:25:11;;;;;;;21.05;2.97;;;;;;;11.01;79.54;99661.28;4961750;28;20177;-59
2022/01/02 00:27:37;;;;;;;16.95;1.92;;;;;;;10.99;79.10;99663.03;4962643;28;20491;-57
2022/01/02 00:30:05;;;;;;;16.08;2.05;;;;;;;11.00;78.60;99660.41;4959877;28;20039;-55
2022/01/02 00:32:35;;;;;;;25.60;3.40;;;;;;;11.04;79.67;99656.91;4959579;28;20487;-57
2022/01/02 00:35:05;;;;;;;22.75;2.72;;;;;;;11.05;79.80;99647.41;4965278;28;20055;-55
2022/01/02 00:37:31;;;;;;;12.48;2.17;;;;;;;11.08;79.25;99641.34;4964988;28;20376;-54
2022/01/02 00:40:01;;;;;;;24.20;3.03;;;;;;;11.05;78.53;99637.91;4970925;28;20113;-56
2022/01/02 00:42:31;;;;;;;15.73;2.42;;;;;;;11.08;79.63;99623.19;4965131;28;20062;-57
2022/01/02 00:45:20;;;;;;;19.45;2.90;;;;;;;11.07;78.70;99634.44;4966234;28;20462;-53
2022/01/02 00:48:20;;;;;;;13.38;2.50;;;;;;;11.08;78.96;99623.19;4967057;28;20038;-56
2022/01/02 00:50:51;;;;;;;19.17;3.08;;;;;;;11.11;79.18;99620.56;4967004;28;20063;-54
2022/01/02 00:53:19;;;;;;;18.55;2.95;;;;;;;11.13;78.52;99624.00;4981722;28;20050;-55
2022/01/02 00:55:47;;;;;;;17.58;2.85;;;;;;;11.14;79.21;99617.94;4962381;28;20051;-56
2022/01/02 00:58:16;;;;;;;18.35;2.92;;;;;;;11.13;78.52;99614.50;4965277;28;20043;-56
2022/01/02 01:00:53;;;;;;;18.75;2.78;;;;;;;11.15;77.95;99617.06;4963498;28;20050;-58
2022/01/02 01:03:25;;;;;;;15.82;2.28;;;;;;;11.15;78.13;99611.88;4968050;28;20081;-56
2022/01/02 01:05:53;;;;;;;16.52;2.22;;;;;;;11.19;78.28;99608.38;4961233;28;20122;-56
2022/01/02 01:08:23;;;;;;;20.90;2.47;;;;;;;11.20;79.12;99607.50;4965922;28;20047;-58
2022/01/02 01:10:50;;;;;;;21.58;2.50;;;;;;;11.21;78.86;99595.41;4967511;28;20103;-58
2022/01/02 01:13:18;;;;;;;15.98;1.90;;;;;;;11.23;78.96;99593.63;4964378;28;20077;-56
2022/01/02 01:15:47;;;;;;;13.40;1.92;;;;;;;11.22;78.98;99587.59;4966589;28;20059;-56
2022/01/02 01:18:14;;;;;;;30.55;3.15;;;;;;;11.24;77.75;99591.03;4964000;28;20045;-54
2022/01/02 01:20:45;;;;;;;16.88;2.92;;;;;;;11.27;78.30;99587.53;4963717;28;20109;-55
2022/01/02 01:23:16;;;;;;;20.65;2.53;;;;;;;11.27;78.50;99570.25;4960720;28;20050;-56
2022/01/02 01:25:46;;;;;;;12.73;2.45;;;;;;;11.26;78.26;99573.72;4962962;28;20059;-57
2022/01/02 01:28:15;;;;;;;21.13;2.72;;;;;;;11.26;77.58;99573.72;4968054;28;20527;-54
2022/01/02 01:30:43;;;;;;;13.55;2.22;;;;;;;11.27;77.82;99574.56;4963350;28;20062;-53
2022/01/02 01:33:10;;;;;;;20.33;2.25;;;;;;;11.26;77.76;99565.06;4962645;28;20051;-55
2022/01/02 01:35:38;;;;;;;16.40;1.67;;;;;;;11.26;77.68;99568.53;4967958;28;20399;-55
2022/01/02 01:38:05;;;;;;;18.25;2.42;;;;;;;11.26;77.45;99568.53;4963109;28;20050;-56
2022/01/02 01:40:38;;;;;;;22.30;2.35;;;;;;;11.24;77.67;99562.50;4969210;28;20097;-56
2022/01/02 01:43:05;;;;;;;18.17;2.33;;;;;;;11.26;78.30;99554.72;4966134;28;20660;-60
2022/01/02 01:45:32;;;;;;;17.33;2.88;;;;;;;11.26;78.31;99553.00;4962432;28;20047;-55
2022/01/02 01:48:04;;;;;;;18.63;3.00;;;;;;;11.26;78.53;99557.31;4966409;28;20491;-55
2022/01/02 01:50:37;;;;;;;15.63;2.28;;;;;;;11.25;77.72;99548.66;4970658;28;20495;-58
2022/01/02 01:53:05;;;;;;;12.32;2.67;;;;;;;11.26;78.75;99546.94;4967125;28;20076;-58
2022/01/02 01:55:33;;;;;;;13.38;2.55;;;;;;;11.27;78.29;99549.50;4966481;28;20098;-54
2022/01/02 01:58:01;;;;;;;12.32;2.35;;;;;;;11.25;77.95;99546.06;4964363;28;20125;-52
2022/01/02 02:00:29;;;;;;;18.13;2.45;;;;;;;11.26;77.57;99547.81;4966749;28;20062;-56
2022/01/02 02:02:56;;;;;;;16.25;2.90;;;;;;;11.24;78.03;99536.59;4966677;28;20043;-54
2022/01/02 02:05:23;;;;;;;17.27;2.63;;;;;;;11.27;78.89;99533.94;4966354;28;20067;-58
2022/01/02 02:07:49;;;;;;;12.13;1.77;;;;;;;11.24;78.97;99528.81;4965680;28;20055;-52
2022/01/02 02:10:24;;;;;;;18.17;2.35;;;;;;;11.24;78.14;99523.63;4966415;28;20054;-52
2022/01/02 02:12:55;;;;;;;12.55;2.58;;;;;;;11.25;77.86;99533.09;4967705;28;20083;-56
2022/01/02 02:15:23;;;;;;;11.82;1.73;;;;;;;11.23;78.03;99511.53;4967163;28;20498;-51
2022/01/02 02:17:51;;;;;;;18.25;2.83;;;;;;;11.25;77.98;99509.78;4963611;28;20047;-57
2022/01/02 02:20:20;;;;;;;10.10;2.17;;;;;;;11.26;77.91;99501.13;4969764;28;20138;-55
2022/01/02 02:22:52;;;;;;;17.00;2.50;;;;;;;11.24;77.87;99500.28;4965096;28;20121;-57
2022/01/02 02:25:21;;;;;;;13.18;2.00;;;;;;;11.23;78.56;99498.59;4970575;28;20050;-55
2022/01/02 02:27:55;;;;;;;21.65;3.63;;;;;;;11.23;78.14;99489.94;4967006;28;20159;-55
2022/01/02 02:30:24;;;;;;;14.05;1.55;;;;;;;11.19;77.82;99484.78;4968417;28;20077;-57
2022/01/02 02:32:53;;;;;;;15.65;2.22;;;;;;;11.21;78.91;99486.53;4969975;28;20059;-56
2022/01/02 02:35:19;;;;;;;10.80;1.60;;;;;;;11.20;78.80;99480.47;4964639;28;20058;-55
2022/01/02 02:37:46;;;;;;;9.38;1.95;;;;;;;11.19;77.92;99471.00;4967439;28;20129;-55
2022/01/02 02:40:16;;;;;;;19.10;3.05;;;;;;;11.19;78.28;99468.41;4968231;28;20114;-56
2022/01/02 02:42:51;;;;;;;14.93;1.52;;;;;;;11.20;78.20;99467.50;4971475;28;20557;-55
2022/01/02 02:51:08;;;;;;;11.60;2.05;;;;;;;11.11;78.20;99459.88;4963405;28;20051;-57
2022/01/02 02:53:39;;;;;;;18.23;1.92;;;;;;;11.09;79.08;99456.44;4971407;28;20062;-58
2022/01/02 02:56:16;;;;;;;20.33;2.33;;;;;;;11.10;79.13;99459.03;4966999;28;20046;-55
2022/01/02 02:58:43;;;;;;;10.23;1.67;;;;;;;11.09;79.06;99453.84;4966085;28;20042;-54
2022/01/02 03:01:12;;;;;;;11.48;2.55;;;;;;;11.10;78.23;99458.16;4966577;28;20050;-53
2022/01/02 03:03:40;;;;;;;10.93;1.40;;;;;;;11.09;78.62;99457.31;4965401;28;20495;-54
2022/01/02 03:06:07;;;;;;;17.58;2.08;;;;;;;11.09;79.18;99454.72;4967096;28;20047;-56
2022/01/02 03:08:35;;;;;;;12.35;2.00;;;;;;;11.10;79.07;99453.84;4969328;28;20109;-53
2022/01/02 03:11:03;;;;;;;13.68;2.20;;;;;;;11.11;78.86;99439.16;4971508;28;20106;-58
2022/01/02 03:13:29;;;;;;;8.65;1.08;;;;;;;11.11;78.19;99439.16;4967742;28;20479;-55
2022/01/02 03:15:56;;;;;;;11.73;1.92;;;;;;;11.11;78.95;99433.97;4967857;28;20078;-55
2022/01/02 03:18:22;;;;;;;16.33;1.73;;;;;;;11.10;77.92;99427.06;4970196;28;20057;-57
2022/01/02 03:20:49;;;;;;;13.77;1.73;;;;;;;11.04;78.61;99423.69;4966214;28;20059;-52
2022/01/02 03:23:16;;;;;;;15.05;1.83;;;;;;;11.05;78.54;99415.03;4968404;28;20051;-60
2022/01/02 03:25:42;;;;;;;11.90;1.80;;;;;;;11.05;78.95;99424.56;4968173;28;20055;-55
2022/01/02 03:28:09;;;;;;;12.70;2.60;;;;;;;11.01;78.23;99397.81;4964697;28;20058;-54
2022/01/02 03:30:36;;;;;;;16.20;2.20;;;;;;;10.98;79.11;99395.25;4960836;28;20125;-56
2022/01/02 03:33:03;;;;;;;11.35;1.95;;;;;;;10.98;79.36;99390.06;4964111;28;20050;-55
2022/01/02 03:35:30;;;;;;;14.90;1.88;;;;;;;10.93;79.29;99381.53;4958690;28;20047;-58
2022/01/02 03:37:56;;;;;;;11.63;1.77;;;;;;;10.93;78.50;99378.94;4960766;28;20043;-54
2022/01/02 03:40:23;;;;;;;15.27;1.85;;;;;;;10.91;78.88;99372.94;4962731;28;20054;-55
2022/01/02 03:42:50;;;;;;;13.73;1.83;;;;;;;10.90;79.41;99373.78;4964343;28;20120;-54
2022/01/02 03:45:16;;;;;;;21.42;1.63;;;;;;;10.88;79.53;99365.19;4958323;28;20097;-55
2022/01/02 03:47:43;;;;;;;11.30;1.60;;;;;;;10.89;78.69;99359.13;4957954;28;20047;-56
2022/01/02 03:50:10;;;;;;;15.07;1.80;;;;;;;10.89;78.53;99351.34;4956025;28;20125;-52
2022/01/02 03:52:37;;;;;;;11.55;1.52;;;;;;;10.89;79.50;99346.19;4959426;28;20062;-55
2022/01/02 03:55:05;;;;;;;16.52;2.40;;;;;;;10.89;78.66;99341.88;4960397;28;20058;-57
2022/01/02 03:57:32;;;;;;;17.63;2.22;;;;;;;10.90;78.51;99338.38;4956662;28;20130;-56
2022/01/02 03:59:59;;;;;;;15.73;2.08;;;;;;;10.92;79.39;99341.78;4958400;28;20103;-55
2022/01/02 04:02:26;;;;;;;12.18;1.42;;;;;;;10.92;79.29;99336.63;4960994;28;20047;-52
2022/01/02 04:04:53;;;;;;;13.15;2.25;;;;;;;10.92;78.37;99320.22;4958466;28;20061;-57
2022/01/02 04:07:20;;;;;;;15.23;1.48;;;;;;;10.90;78.48;99317.66;4959969;28;20503;-58
2022/01/02 04:09:50;;;;;;;10.50;1.95;;;;;;;10.95;78.32;99315.00;4958730;28;20811;-54
2022/01/02 04:12:18;;;;;;;8.18;1.40;;;;;;;10.94;79.26;99310.69;4958350;28;20046;-55
2022/01/02 04:14:45;;;;;;;16.52;1.98;;;;;;;10.93;79.07;99298.63;4959434;28;20051;-54
2022/01/02 04:17:12;;;;;;;11.88;2.00;;;;;;;10.95;79.31;99289.09;4959233;28;20070;-54
2022/01/02 04:19:38;;;;;;;14.75;2.47;;;;;;;10.98;79.14;99283.84;4956955;28;20047;-55
2022/01/02 04:22:05;;;;;;;10.82;1.95;;;;;;;10.98;79.09;99272.63;4965091;28;20047;-51
2022/01/02 04:24:33;;;;;;;14.07;2.30;;;;;;;10.98;78.92;99268.28;4957788;28;20694;-56
2022/01/02 04:26:59;;;;;;;17.83;2.33;;;;;;;10.95;79.71;99272.69;4958472;28;20042;-56
2022/01/02 04:29:27;;;;;;;14.75;2.22;;;;;;;10.97;79.08;99261.41;4963761;28;20042;-53
2022/01/02 04:31:54;;;;;;;13.05;1.75;;;;;;;10.96;80.03;99254.53;4963001;28;20047;-57
2022/01/02 04:34:22;;;;;;;9.20;1.75;;;;;;;10.93;79.35;99249.38;4961981;28;20089;-56
2022/01/02 04:36:50;;;;;;;11.32;1.60;;;;;;;10.95;79.98;99237.28;4961773;28;20059;-58
2022/01/02 04:39:18;;;;;;;23.40;2.58;;;;;;;10.93;79.25;99237.31;4963705;28;20089;-56
2022/01/02 04:41:45;;;;;;;13.13;1.17;;;;;;;10.89;80.44;99222.69;4966676;28;20530;-54
2022/01/02 04:44:12;;;;;;;11.23;1.58;;;;;;;10.88;80.49;99215.78;4964773;28;20053;-53
2022/01/02 04:46:40;;;;;;;14.90;1.90;;;;;;;10.87;80.15;99202.84;4962864;28;20130;-54
2022/01/02 04:49:07;;;;;;;12.93;1.73;;;;;;;10.83;81.15;99214.16;4960831;28;20479;-55
2022/01/02 04:51:34;;;;;;;13.68;1.38;;;;;;;10.86;80.26;99211.50;4957418;28;20680;-57
2022/01/02 04:54:01;;;;;;;11.80;1.83;;;;;;;10.87;80.69;99205.44;4964175;28;20061;-57
2022/01/02 04:56:28;;;;;;;13.80;1.75;;;;;;;10.84;80.44;99200.34;4962820;28;20529;-56
2022/01/02 04:58:55;;;;;;;12.52;1.63;;;;;;;10.84;81.08;99192.56;4962628;28;20055;-53
2022/01/02 05:01:23;;;;;;;10.45;1.65;;;;;;;10.86;80.45;99196.84;4961461;28;20541;-53
2022/01/02 05:03:50;;;;;;;14.75;1.80;;;;;;;10.85;80.28;99186.50;4966058;28;20059;-54
2022/01/02 05:06:18;;;;;;;16.10;1.38;;;;;;;10.86;80.73;99185.59;4963466;28;20442;-56
2022/01/02 05:08:46;;;;;;;6.32;1.65;;;;;;;10.85;80.53;99168.38;4956252;28;20590;-56
2022/01/02 05:11:14;;;;;;;8.30;1.55;;;;;;;10.84;81.13;99159.72;4961223;28;20062;-55
2022/01/02 05:13:41;;;;;;;12.60;1.23;;;;;;;10.83;81.00;99160.63;4964393;28;20538;-53
2022/01/02 05:16:09;;;;;;;13.25;1.75;;;;;;;10.85;81.09;99147.63;4959764;28;20078;-55
2022/01/02 05:18:36;;;;;;;11.40;1.63;;;;;;;10.86;81.51;99149.34;4959324;28;20081;-56
2022/01/02 05:21:04;;;;;;;6.18;1.55;;;;;;;10.84;81.87;99145.94;4960146;28;20078;-57
2022/01/02 05:23:31;;;;;;;14.80;2.33;;;;;;;10.83;80.85;99202.06;4958667;28;20051;-55
2022/01/02 05:25:59;;;;;;;7.97;1.63;;;;;;;10.85;80.63;99210.69;4958569;28;20046;-56
2022/01/02 05:28:27;;;;;;;3.88;0.90;;;;;;;10.86;80.20;99242.59;4959518;28;20700;-54
2022/01/02 05:30:54;;;;;;;2.58;0.68;;;;;;;10.70;80.49;99237.66;4960491;28;20495;-53
2022/01/02 05:33:21;;;;;;;1.98;0.73;;;;;;;10.61;79.30;99230.06;4959938;28;20047;-57
2022/01/02 05:35:48;;;;;;;1.10;0.25;;;;;;;10.48;78.71;99242.34;4964612;28;20042;-55
2022/01/02 05:38:18;;;;;;;0.70;0.25;;;;;;;10.40;78.49;99240.69;4963547;28;20047;-55
2022/01/02 05:40:47;;;;;;;1.10;0.20;;;;;;;10.32;79.36;99249.44;4963285;28;20138;-53
2022/01/02 05:43:15;;;;;;;0.43;0.43;;;;;;;10.21;78.85;99250.47;4963335;28;20062;-56
2022/01/02 05:45:42;;;;;;;0.45;0.32;;;;;;;10.21;78.73;99239.25;4962877;28;20102;-57
2022/01/02 05:48:09;;;;;;;0.95;0.20;;;;;;;10.15;79.23;99219.50;4963432;28;20042;-58
2022/01/02 05:50:36;;;;;;;0.93;0.20;;;;;;;10.12;79.15;99235.06;4963711;28;20097;-55
2022/01/02 05:53:04;;;;;;;3.40;0.52;;;;;;;10.05;79.26;99239.47;4958484;28;20047;-57
2022/01/02 05:55:31;;;;;;;1.77;0.20;;;;;;;10.04;79.11;99242.94;4963983;28;20050;-56
2022/01/02 05:57:58;;;;;;;2.47;0.45;;;;;;;10.03;78.66;99251.56;4961591;28;20101;-55
2022/01/02 06:00:26;;;;;;;2.90;0.50;;;;;;;9.95;78.45;99251.66;4959987;28;20505;-57
2022/01/02 06:02:54;;;;;;;1.48;1.27;;;;;;;9.93;79.05;99257.75;4964907;28;20082;-56
2022/01/02 06:05:21;;;;;;;2.45;0.90;;;;;;;9.86;78.76;99255.22;4962702;28;20046;-56
2022/01/02 06:07:49;;;;;;;1.52;0.40;;;;;;;9.79;78.63;99261.34;4962621;28;20426;-56
2022/01/02 06:10:16;;;;;;;1.45;0.65;;;;;;;9.73;79.10;99267.44;4962069;28;20490;-54
2022/01/02 06:12:44;;;;;;;2.20;0.38;;;;;;;9.65;78.77;99277.03;4959378;28;20050;-59
2022/01/02 06:15:11;;;;;;;1.50;0.80;;;;;;;9.61;78.44;99281.38;4966105;28;20047;-55
2022/01/02 06:17:39;;;;;;;1.85;0.77;;;;;;;9.58;78.68;99285.72;4962857;28;20055;-55
2022/01/02 06:20:06;;;;;;;1.27;0.32;;;;;;;9.55;78.85;99285.78;4965507;28;20043;-56
2022/01/02 06:22:33;;;;;;;0.20;0.10;;;;;;;9.48;78.60;99288.41;4963177;28;20051;-56
2022/01/02 06:25:00;;;;;;;0.95;0.35;;;;;;;9.46;78.72;99299.66;4962057;28;20381;-50
2022/01/02 06:27:27;;;;;;;0.40;0.28;;;;;;;9.42;78.72;99298.81;4957936;28;20138;-54
2022/01/02 06:29:55;;;;;;;4.50;0.75;;;;;;;9.39;78.75;99306.59;4956697;28;20054;-52
2022/01/02 06:32:22;;;;;;;3.30;0.25;;;;;;;9.34;78.75;99303.19;4959378;28;20051;-54
2022/01/02 06:34:50;;;;;;;2.55;0.55;;;;;;;9.33;78.94;99301.50;4960212;28;21917;-55
2022/01/02 06:37:17;;;;;;;0.77;0.55;;;;;;;9.29;79.06;99307.56;4958862;28;20059;-51
2022/01/02 06:39:45;;;;;;;2.30;0.20;;;;;;;9.25;79.10;99304.13;4965761;28;20062;-52
2022/01/02 06:42:13;;;;;;;1.88;0.57;;;;;;;9.21;79.12;99313.66;4959176;28;20062;-56
2022/01/02 06:44:40;;;;;;;1.98;0.40;;;;;;;9.20;78.76;99316.25;4965587;28;20051;-59
2022/01/02 06:47:07;;;;;;;1.48;0.45;;;;;;;9.12;79.03;99308.59;4960998;28;20105;-56
2022/01/02 06:49:34;;;;;;;1.05;0.43;;;;;;;9.12;79.11;99313.75;4962758;28;20104;-50
2022/01/02 06:52:02;;;;;;;1.55;0.82;;;;;;;9.07;78.70;99310.31;4965880;28;20055;-57
2022/01/02 06:54:30;;;;;;;0.47;0.35;;;;;;;9.05;78.78;99312.09;4967555;28;20487;-57
2022/01/02 06:56:57;;;;;;;1.85;0.20;;;;;;;9.01;79.31;99311.22;4965087;28;20426;-55
2022/01/02 06:59:24;;;;;;;0.52;0.43;;;;;;;8.98;79.33;99317.28;4964980;28;20911;-59
2022/01/02 07:01:51;;;;;;;5.57;0.75;;;;;;;8.97;79.58;99319.88;4967444;28;20053;-59
2022/01/02 07:04:18;;;;;;;1.27;0.20;;;;;;;8.95;79.52;99322.47;4966833;28;20053;-58
2022/01/02 07:06:45;;;;;;;3.72;0.85;;;;;;;8.94;79.08;99331.09;4966424;28;20077;-56
2022/01/02 07:09:12;;;;;;;4.00;0.82;;;;;;;8.91;79.70;99335.44;4963298;28;20058;-59
2022/01/02 07:11:38;;;;;;;1.45;1.00;;;;;;;8.88;79.36;99333.72;4964934;28;20125;-53
2022/01/02 07:14:05;;;;;;;0.85;0.20;;;;;;;8.88;79.95;99344.03;4961697;28;20463;-52
2022/01/02 07:16:31;;;;;;;1.70;0.22;;;;;;;8.88;80.05;99338.88;4966363;28;20097;-55
2022/01/02 07:18:58;;;;;;;1.90;0.25;;;;;;;8.84;79.17;99337.19;4967398;28;20043;-58
2022/01/02 07:21:25;;;;;;;1.73;0.22;;;;;;;8.84;79.45;99344.94;4965455;28;20114;-52
2022/01/02 07:23:54;;;;;;;0.98;0.57;;;;;;;8.83;79.61;99349.25;4963461;28;20051;-54
2022/01/02 07:26:21;;;;;;;2.58;0.65;;;;;;;8.80;78.80;99338.94;4967014;28;20051;-55
2022/01/02 07:28:47;;;;;;;2.17;0.30;;;;;;;8.76;79.58;99347.59;4965395;28;20117;-58
2022/01/02 07:31:14;;;;;;;0.50;0.17;;;;;;;8.77;79.53;99338.09;4961034;28;20059;-56
2022/01/02 07:33:40;;;;;;;0.93;0.70;;;;;;;8.73;79.49;99342.44;4962551;28;20105;-54
2022/01/02 07:36:07;;;;;;;1.08;0.55;;;;;;;8.74;79.21;99369.97;4960812;28;20059;-52
2022/01/02 07:38:34;;;;;;;0.85;0.55;;;;;;;8.68;79.40;99370.84;4969443;28;20113;-52
2022/01/02 07:41:00;;;;;;;1.60;0.45;;;;;;;8.69;79.68;99376.88;4964357;28;20146;-57
2022/01/02 07:43:27;;;;;;;1.80;0.22;;;;;;;8.67;79.06;99374.31;4962536;28;20074;-53
2022/01/02 07:45:53;;;;;;;1.63;0.90;;;;;;;8.66;79.89;99372.59;4958616;28;20058;-53
2022/01/02 07:48:20;;;;;;;0.68;0.47;;;;;;;8.63;79.36;99377.78;4964383;28;20087;-57
2022/01/02 07:50:46;;;;;;;2.03;0.77;;;;;;;8.57;79.73;99383.84;4965781;28;20129;-57
2022/01/02 07:53:13;;;;;;;4.22;0.47;;;;;;;8.57;80.02;99383.84;4967015;28;20100;-53
2022/01/02 07:55:40;;;;;;;3.97;1.77;;;;;;;8.57;80.56;99398.44;4962615;28;20510;-58
2022/01/02 07:58:11;;;;;;;8.07;4.05;;;;;;;8.54;79.61;99398.50;4964813;28;20042;-56
2022/01/02 08:00:38;;;;;;;9.60;3.67;;;;;;;8.53;80.61;99401.88;4958378;28;20043;-51
2022/01/02 08:03:05;;;;;;;5.15;3.67;;;;;;;8.55;80.56;99410.53;4965033;28;20106;-56
2022/01/02 08:05:37;;;;;;;3.17;1.25;;;;;;;8.56;80.22;99402.78;4964684;28;20062;-58
2022/01/02 08:08:04;;;;;;;2.45;0.80;;;;;;;8.58;81.07;99421.69;4959437;28;20646;-51
2022/01/02 08:10:30;;;;;;;3.25;0.90;;;;;;;8.66;81.31;99419.06;4963089;28;20106;-50
2022/01/02 08:12:57;;;;;;;5.45;1.33;;;;;;;8.72;80.71;99436.25;4966309;28;20561;-56
2022/01/02 08:15:24;;;;;;;2.97;1.30;;;;;;;8.79;80.32;99440.53;4964065;28;20066;-55
2022/01/02 08:17:50;;;;;;;3.83;1.30;;;;;;;8.83;80.41;99441.34;4962170;28;20055;-56
2022/01/02 08:20:17;;;;;;;2.80;1.15;;;;;;;8.90;80.68;99447.34;4965170;28;20121;-58
2022/01/02 08:22:43;;;;;;;1.77;1.13;;;;;;;8.92;79.88;99451.63;4967869;28;20105;-56
2022/01/02 08:25:10;;;;;;;2.83;0.95;;;;;;;8.96;80.49;99450.78;4963716;28;20125;-54
2022/01/02 08:27:37;;;;;;;3.22;0.80;;;;;;;9.05;80.23;99443.81;4964116;28;20075;-51
2022/01/02 08:30:04;;;;;;;1.70;0.40;;;;;;;9.16;80.16;99441.16;4961200;28;20145;-58
2022/01/02 08:32:31;;;;;;;1.25;0.70;;;;;;;9.35;80.23;99439.28;4961912;28;20093;-52
2022/01/02 08:34:57;;;;;;;1.23;0.63;;;;;;;9.58;79.71;99446.00;4964855;28;20050;-54
2022/01/02 08:37:24;;;;;;;2.50;1.15;;;;;;;9.80;79.33;99443.25;4962784;28;20117;-54
2022/01/02 08:39:51;;;;;;;2.65;0.93;;;;;;;9.97;79.36;99443.09;4965903;28;20050;-54
2022/01/02 08:42:17;;;;;;;1.33;0.40;;;;;;;10.18;78.91;99444.59;4959352;28;20742;-55
2022/01/02 08:44:44;;;;;;;5.40;0.68;;;;;;;10.28;78.29;99448.81;4960804;28;20051;-55
2022/01/02 08:47:11;;;;;;;0.75;0.35;;;;;;;10.57;78.45;99453.69;4962899;28;20495;-52
2022/01/02 08:49:39;;;;;;;0.55;0.45;;;;;;;10.80;77.40;99446.47;4960589;28;20663;-54
2022/01/02 08:52:05;;;;;;;0.95;0.52;;;;;;;10.94;76.51;99453.19;4961202;28;20059;-55
2022/01/02 08:54:32;;;;;;;0.68;0.52;;;;;;;11.02;75.88;99450.50;4964231;28;20058;-58
2022/01/02 08:56:59;;;;;;;3.00;0.88;;;;;;;10.88;75.18;99458.47;4958346;28;20057;-57
2022/01/02 08:59:27;;;;;;;3.35;0.52;;;;;;;10.76;75.35;99469.84;4956112;28;20055;-53
2022/01/02 09:01:56;;;;;;;3.38;0.85;;;;;;;10.66;75.28;99466.50;4959009;28;20148;-53
2022/01/02 09:04:23;;;;;;;4.68;1.63;;;;;;;10.62;75.14;99468.28;4962269;28;20062;-58
2022/01/02 09:06:50;;;;;;;3.55;1.05;;;;;;;10.58;75.21;99476.97;4958375;28;20055;-55
2022/01/02 09:09:17;;;;;;;3.38;1.15;;;;;;;10.44;75.20;99478.84;4963046;28;20054;-55
2022/01/02 09:11:45;;;;;;;2.65;0.47;;;;;;;10.31;76.26;99483.28;4958391;28;20054;-56
2022/01/02 09:14:12;;;;;;;3.70;0.68;;;;;;;10.19;75.73;99477.34;4952663;28;20527;-55
2022/01/02 09:16:40;;;;;;;0.85;0.20;;;;;;;10.02;75.94;99478.38;4956037;28;20058;-52
2022/01/02 09:19:07;;;;;;;2.28;0.75;;;;;;;10.00;76.65;99474.09;4964208;28;20109;-52
2022/01/02 09:21:33;;;;;;;4.18;1.58;;;;;;;10.00;76.27;99472.34;4955741;28;20113;-55
2022/01/02 09:24:00;;;;;;;3.47;0.85;;;;;;;10.61;77.41;99470.91;4958361;28;20050;-51
2022/01/02 09:26:27;;;;;;;2.22;1.05;;;;;;;11.37;77.03;99469.00;4958511;28;20094;-58
2022/01/02 09:28:53;;;;;;;4.65;1.75;;;;;;;11.76;74.73;99468.38;4958188;28;20055;-55
2022/01/02 09:31:20;;;;;;;5.53;1.42;;;;;;;11.85;73.60;99473.41;4961498;28;20491;-54
2022/01/02 09:33:47;;;;;;;2.75;1.10;;;;;;;12.23;74.28;99473.66;4960658;28;20054;-50
2022/01/02 09:36:14;;;;;;;3.75;1.40;;;;;;;12.84;74.50;99475.88;4962749;28;20047;-54
2022/01/02 09:38:42;;;;;;;2.80;0.70;;;;;;;13.43;72.76;99468.50;4961365;28;20141;-51
2022/01/02 09:41:09;;;;;;;4.95;1.13;;;;;;;14.11;71.43;99472.94;4962934;28;20050;-55
2022/01/02 09:43:35;;;;;;;8.70;1.58;;;;;;;14.76;70.79;99468.53;4968088;28;20050;-54
2022/01/02 09:46:03;;;;;;;7.07;1.70;;;;;;;15.42;69.41;99483.09;4960807;28;20051;-60
2022/01/02 09:48:31;;;;;;;5.55;1.85;;;;;;;15.98;68.66;99484.81;4962664;28;20532;-55
2022/01/02 09:50:58;;;;;;;5.28;1.20;;;;;;;16.49;67.31;99479.53;4963375;28;20043;-56
2022/01/02 09:53:24;;;;;;;13.27;2.90;;;;;;;16.86;65.47;99478.19;4966837;28;20054;-55
2022/01/02 09:55:54;;;;;;;6.93;1.42;;;;;;;17.36;64.93;99486.75;4966063;28;20126;-59
2022/01/02 09:58:21;;;;;;;8.20;2.28;;;;;;;17.85;63.56;99483.88;4964747;28;20043;-58
2022/01/02 10:00:48;;;;;;;2.35;1.23;;;;;;;18.17;60.71;99475.56;4950118;28;20086;-55
2022/01/02 10:03:17;;;;;;;9.18;2.78;;;;;;;18.59;61.11;99478.13;4939145;28;20625;-53
2022/01/02 10:05:59;;;;;;;6.88;1.00;;;;;;;18.99;60.32;99470.19;4945284;28;20101;-53
2022/01/02 10:08:27;;;;;;;;;;;;;;;19.21;57.52;99477.94;4953952;28;20051;-55
2022/01/02 10:11:04;;;;;;;7.93;2.38;;;;;;;19.72;56.02;99471.97;4954173;28;19930;-58
2022/01/02 10:13:52;;;;;;;13.05;2.53;;;;;;;20.00;55.75;99475.00;4954712;28;20117;-53
2022/01/02 10:16:22;;;;;;;7.30;1.63;;;;;;;20.32;56.02;99472.47;4955933;28;20998;-55
2022/01/02 10:18:51;;;;;;;8.82;1.70;;;;;;;20.33;54.67;99473.34;4952269;28;22546;-56
2022/01/02 10:21:29;;;;;;;5.63;1.50;;;;;;;20.44;54.43;99470.13;4955147;28;20109;-56
2022/01/02 10:24:21;;;;;;;6.90;2.08;;;;;;;20.52;53.78;99474.06;4951620;28;20066;-54
2022/01/02 10:27:12;;;;;;;13.65;3.72;;;;;;;20.77;52.29;99472.72;4954682;28;20106;-56
2022/01/02 10:29:42;;;;;;;14.32;3.25;;;;;;;21.12;53.69;99461.19;4950347;28;20093;-57
2022/01/02 10:32:33;;;;;;;15.02;4.50;;;;;;;21.45;52.40;99462.00;4952580;28;20046;-55
2022/01/02 10:35:19;;;;;;;5.65;1.67;;;;;;;21.60;49.25;99462.03;4953762;28;20054;-52
2022/01/02 10:37:57;;;;;;;6.22;2.30;;;;;;;21.41;49.84;99465.75;4950157;28;20078;-52
2022/01/02 10:40:39;;;;;;;5.78;1.67;;;;;;;21.38;49.30;99471.19;4950825;28;20097;-53
2022/01/02 10:43:08;;;;;;;7.18;1.50;;;;;;;21.39;50.18;99464.97;4961891;28;20054;-57
2022/01/02 10:45:43;;;;;;;7.22;0.65;;;;;;;20.96;47.24;99463.84;4955598;28;20047;-57
2022/01/02 10:48:12;;;;;;;5.68;0.90;;;;;;;20.64;48.97;99467.25;4963982;28;20038;-54
2022/01/02 10:50:40;;;;;;;5.50;0.77;;;;;;;20.28;48.95;99477.06;4958753;28;20122;-55
2022/01/02 10:53:16;;;;;;;6.53;1.02;;;;;;;19.56;48.75;99463.16;4964006;28;20063;-55
2022/01/02 10:55:45;;;;;;;10.63;3.05;;;;;;;18.94;50.68;99462.53;4967676;28;20061;-57
2022/01/02 10:58:12;;;;;;;3.92;0.93;;;;;;;18.31;51.54;99447.94;4960315;28;20538;-56
2022/01/02 11:00:40;;;;;;;5.50;0.82;;;;;;;17.78;52.48;99451.00;4965956;28;20043;-54
2022/01/02 11:03:07;;;;;;;20.38;4.68;;;;;;;17.41;53.60;99436.81;4968310;28;20054;-56
2022/01/02 11:05:36;;;;;;;4.20;0.80;;;;;;;17.01;54.78;99434.00;4965308;28;20105;-55
2022/01/02 11:08:04;;;;;;;7.82;1.15;;;;;;;16.48;55.33;99439.47;4961680;28;20503;-53
2022/01/02 11:10:35;;;;;;;7.10;0.88;;;;;;;16.04;55.54;99440.16;4966544;28;20383;-59
2022/01/02 11:13:04;;;;;;;5.63;0.82;;;;;;;15.62;56.70;99437.22;4965381;28;20069;-57
2022/01/02 11:15:33;;;;;;;7.28;0.80;;;;;;;15.24;57.39;99437.56;4966053;28;20144;-54
2022/01/02 11:17:59;;;;;;;8.35;0.73;;;;;;;14.79;58.29;99433.72;4965575;28;20054;-59
2022/01/02 11:20:30;;;;;;;5.40;0.70;;;;;;;14.50;59.22;99432.81;4964193;28;20058;-60
2022/01/02 11:23:21;;;;;;;2.88;0.50;;;;;;;14.09;60.16;99431.31;4965339;28;20094;-57
2022/01/02 11:26:18;;;;;;;5.60;0.93;;;;;;;13.84;60.70;99431.97;4963336;28;20434;-59
2022/01/02 11:29:04;;;;;;;5.47;1.20;;;;;;;13.70;60.80;99429.72;4964803;28;20436;-58
2022/01/02 11:31:33;;;;;;;5.60;1.05;;;;;;;13.61;61.78;99430.81;4967095;28;20042;-56
2022/01/02 11:34:01;;;;;;;3.60;1.20;;;;;;;13.56;62.57;99422.28;4959638;28;20051;-59
2022/01/02 11:36:31;;;;;;;4.65;0.70;;;;;;;13.57;62.07;99416.16;4957972;28;20128;-58
2022/01/02 11:39:08;;;;;;;4.28;1.20;;;;;;;13.60;62.44;99429.09;4946640;28;20108;-54
2022/01/02 11:41:39;;;;;;;4.07;0.60;;;;;;;13.64;62.51;99421.22;4948551;28;20455;-54
2022/01/02 11:44:12;;;;;;;6.70;0.60;;;;;;;13.39;61.80;99414.00;4947199;28;20059;-58